createdAt,value
2018-12-09T00:02:09.613Z,0.40
2018-12-09T00:04:37.682Z,2.60
2018-12-09T00:07:05.734Z,0.93
2018-12-09T00:09:33.795Z,0.40
2018-12-09T00:12:01.832Z,0.40
2018-12-09T00:14:29.936Z,0.50
2018-12-09T00:16:58.416Z,0.50
2018-12-09T00:19:26.491Z,0.40
2018-12-09T00:21:55.040Z,0.40
2018-12-09T00:24:23.101Z,0.40
2018-12-09T00:26:51.136Z,0.67
2018-12-09T00:29:19.331Z,0.47
2018-12-09T00:31:47.384Z,0.30
2018-12-09T00:34:15.448Z,0.40
2018-12-09T00:36:43.506Z,0.50
2018-12-09T00:39:11.645Z,0.40
2018-12-09T00:41:39.913Z,0.40
2018-12-09T00:44:07.945Z,1.40
2018-12-09T00:46:36.025Z,1.43
2018-12-09T00:49:04.077Z,0.43
2018-12-09T00:51:32.118Z,3.80
2018-12-09T00:54:00.186Z,0.50
2018-12-09T00:56:28.217Z,0.57
2018-12-09T00:58:56.262Z,0.43
2018-12-09T01:01:24.298Z,1.60
2018-12-09T01:03:52.367Z,0.50
2018-12-09T01:06:20.432Z,1.00
2018-12-09T01:08:48.526Z,2.13
2018-12-09T01:11:16.566Z,4.10
2018-12-09T01:13:44.591Z,1.50
2018-12-09T01:16:12.695Z,0.40
2018-12-09T01:18:40.712Z,0.50
2018-12-09T01:21:08.790Z,0.83
2018-12-09T01:23:36.811Z,0.87
2018-12-09T01:26:04.865Z,2.40
2018-12-09T01:28:32.896Z,1.40
2018-12-09T01:31:01.022Z,2.73
2018-12-09T01:33:29.050Z,2.10
2018-12-09T01:35:57.110Z,0.50
2018-12-09T01:38:25.164Z,1.70
2018-12-09T01:40:53.998Z,1.57
2018-12-09T01:43:22.051Z,0.80
2018-12-09T01:45:50.158Z,1.03
2018-12-09T01:48:18.444Z,0.97
2018-12-09T01:50:46.476Z,3.13
2018-12-09T01:53:20.254Z,3.03
2018-12-09T01:55:48.271Z,2.10
2018-12-09T01:58:16.545Z,5.40
2018-12-09T02:00:44.593Z,8.63
2018-12-09T02:03:13.133Z,3.03
2018-12-09T02:05:41.417Z,3.03
2018-12-09T02:08:09.455Z,1.07
2018-12-09T02:10:37.643Z,1.57
2018-12-09T02:13:05.739Z,3.80
2018-12-09T02:15:33.791Z,2.40
2018-12-09T02:18:01.849Z,2.20
2018-12-09T02:20:30.154Z,6.30
2018-12-09T02:22:58.199Z,2.50
2018-12-09T02:25:26.902Z,5.53
2018-12-09T02:27:55.194Z,6.80
2018-12-09T02:30:23.255Z,9.10
2018-12-09T02:32:51.339Z,6.47
2018-12-09T02:35:19.582Z,6.57
2018-12-09T02:37:47.883Z,3.23
2018-12-09T02:40:16.157Z,2.47
2018-12-09T02:42:44.211Z,4.30
2018-12-09T02:45:12.246Z,1.63
2018-12-09T02:47:40.744Z,3.30
2018-12-09T02:50:08.780Z,3.77
2018-12-09T02:52:36.827Z,1.93
2018-12-09T02:55:05.367Z,3.80
2018-12-09T02:57:33.402Z,0.80
2018-12-09T03:00:01.477Z,2.57
2018-12-09T03:02:30.039Z,5.50
2018-12-09T03:04:58.102Z,1.00
2018-12-09T03:07:26.385Z,4.00
2018-12-09T03:09:54.436Z,4.97
2018-12-09T03:12:22.463Z,1.20
2018-12-09T03:14:50.511Z,1.50
2018-12-09T03:17:18.786Z,1.80
2018-12-09T03:19:47.067Z,2.53
2018-12-09T03:22:15.751Z,1.83
2018-12-09T03:24:44.627Z,3.77
2018-12-09T03:27:12.714Z,1.80
2018-12-09T03:29:40.836Z,3.00
2018-12-09T03:32:09.268Z,2.97
2018-12-09T03:34:37.560Z,1.70
2018-12-09T03:37:05.665Z,4.67
2018-12-09T03:39:33.694Z,2.73
2018-12-09T03:42:01.733Z,3.57
2018-12-09T03:44:30.027Z,5.60
2018-12-09T03:46:58.088Z,4.13
2018-12-09T03:49:26.371Z,4.20
2018-12-09T03:51:54.659Z,6.33
2018-12-09T03:54:22.945Z,4.20
2018-12-09T03:56:51.031Z,6.60
2018-12-09T03:59:19.309Z,5.00
2018-12-09T04:01:47.344Z,5.40
2018-12-09T04:04:15.459Z,4.73
2018-12-09T04:06:43.841Z,4.70
2018-12-09T04:09:12.349Z,4.63
2018-12-09T04:11:40.653Z,9.47
2018-12-09T04:14:08.929Z,3.50
2018-12-09T04:16:37.243Z,6.67
2018-12-09T04:19:05.292Z,5.73
2018-12-09T04:21:33.513Z,10.90
2018-12-09T04:24:01.557Z,6.00
2018-12-09T04:26:29.601Z,8.57
2018-12-09T04:28:57.667Z,5.40
2018-12-09T04:31:25.763Z,9.33
2018-12-09T04:33:54.883Z,5.20
2018-12-09T04:36:22.931Z,2.67
2018-12-09T04:38:50.965Z,3.90
2018-12-09T04:41:19.014Z,7.67
2018-12-09T04:43:47.051Z,6.27
2018-12-09T04:46:15.103Z,5.07
2018-12-09T04:48:43.129Z,5.17
2018-12-09T04:51:11.410Z,4.00
2018-12-09T04:53:39.446Z,4.43
2018-12-09T04:56:08.131Z,2.07
2018-12-09T04:58:36.203Z,4.73
2018-12-09T05:01:04.558Z,5.00
2018-12-09T05:03:32.598Z,4.77
2018-12-09T05:06:00.895Z,2.20
2018-12-09T05:08:29.386Z,3.40
2018-12-09T05:10:57.467Z,4.73
2018-12-09T05:13:25.508Z,2.30
2018-12-09T05:15:53.538Z,5.00
2018-12-09T05:18:21.850Z,4.73
2018-12-09T05:20:50.138Z,3.30
2018-12-09T05:23:18.437Z,5.07
2018-12-09T05:25:46.723Z,4.50
2018-12-09T05:28:14.767Z,4.57
2018-12-09T05:30:43.052Z,1.83
2018-12-09T05:33:11.096Z,5.10
2018-12-09T05:35:39.404Z,4.53
2018-12-09T05:38:07.696Z,6.60
2018-12-09T05:40:36.254Z,6.40
2018-12-09T05:43:04.518Z,4.83
2018-12-09T05:45:32.663Z,6.93
2018-12-09T05:48:00.722Z,10.77
2018-12-09T05:50:29.000Z,4.40
2018-12-09T05:52:57.027Z,4.80
2018-12-09T05:55:25.101Z,5.03
2018-12-09T05:57:53.115Z,5.13
2018-12-09T06:00:21.409Z,9.60
2018-12-09T06:02:54.226Z,7.83
2018-12-09T06:05:22.594Z,9.60
2018-12-09T06:07:51.171Z,7.40
2018-12-09T06:10:20.915Z,10.23
2018-12-09T06:12:49.199Z,9.27
2018-12-09T06:15:17.550Z,4.00
2018-12-09T06:17:45.817Z,5.30
2018-12-09T06:20:13.866Z,5.50
2018-12-09T06:22:41.975Z,6.47
2018-12-09T06:25:10.107Z,10.70
2018-12-09T06:27:38.901Z,7.60
2018-12-09T06:30:07.410Z,11.53
2018-12-09T06:32:35.463Z,3.40
2018-12-09T06:35:04.265Z,4.93
2018-12-09T06:37:32.793Z,7.57
2018-12-09T06:40:02.016Z,5.77
2018-12-09T06:42:30.087Z,9.20
2018-12-09T06:44:58.558Z,10.40
2018-12-09T06:47:27.167Z,5.40
2018-12-09T06:49:55.632Z,6.70
2018-12-09T06:52:24.125Z,7.00
2018-12-09T06:54:52.653Z,4.80
2018-12-09T06:57:20.730Z,7.93
2018-12-09T06:59:48.786Z,3.90
2018-12-09T07:02:16.822Z,7.87
2018-12-09T07:04:44.891Z,5.57
2018-12-09T07:07:12.938Z,5.30
2018-12-09T07:09:41.226Z,6.87
2018-12-09T07:12:09.267Z,1.20
2018-12-09T07:14:37.327Z,5.23
2018-12-09T07:17:05.715Z,6.67
2018-12-09T07:19:34.121Z,4.00
2018-12-09T07:22:02.174Z,2.00
2018-12-09T07:24:30.555Z,1.70
2018-12-09T07:26:58.598Z,3.70
2018-12-09T07:29:27.166Z,4.27
2018-12-09T07:31:55.278Z,2.60
2018-12-09T07:34:23.316Z,4.93
2018-12-09T07:36:51.361Z,2.27
2018-12-09T07:39:19.650Z,7.20
2018-12-09T07:41:47.786Z,3.63
2018-12-09T07:44:15.827Z,5.60
2018-12-09T07:46:44.440Z,4.60
2018-12-09T07:49:12.825Z,8.23
2018-12-09T07:51:41.443Z,5.20
2018-12-09T07:54:09.502Z,4.63
2018-12-09T07:56:37.535Z,5.87
2018-12-09T07:59:07.342Z,7.03
2018-12-09T08:01:35.371Z,6.43
2018-12-09T08:04:03.441Z,5.80
2018-12-09T08:06:31.475Z,7.37
2018-12-09T08:08:59.524Z,4.73
2018-12-09T08:11:27.578Z,4.77
2018-12-09T08:13:55.620Z,5.20
2018-12-09T08:16:23.732Z,7.27
2018-12-09T08:18:51.931Z,10.80
2018-12-09T08:21:19.974Z,9.23
2018-12-09T08:23:48.046Z,6.87
2018-12-09T08:26:16.127Z,5.87
2018-12-09T08:28:44.263Z,6.70
2018-12-09T08:31:12.445Z,7.93
2018-12-09T08:33:40.554Z,5.43
2018-12-09T08:36:08.635Z,12.43
2018-12-09T08:38:36.679Z,15.73
2018-12-09T08:41:04.715Z,6.50
2018-12-09T08:43:32.777Z,11.07
2018-12-09T08:46:00.857Z,5.70
2018-12-09T08:48:29.161Z,10.63
2018-12-09T08:50:57.327Z,14.63
2018-12-09T08:53:25.691Z,6.90
2018-12-09T08:55:54.392Z,6.03
2018-12-09T08:58:22.954Z,7.30
2018-12-09T09:00:51.043Z,10.70
2018-12-09T09:03:19.211Z,12.83
2018-12-09T09:05:47.937Z,12.47
2018-12-09T09:08:15.977Z,12.10
2018-12-09T09:10:44.056Z,7.40
2018-12-09T09:13:12.119Z,9.60
2018-12-09T09:15:42.142Z,10.77
2018-12-09T09:18:10.331Z,8.60
2018-12-09T09:20:38.403Z,8.30
2018-12-09T09:23:06.483Z,14.53
2018-12-09T09:25:34.575Z,9.57
2018-12-09T09:28:02.653Z,8.87
2018-12-09T09:30:30.903Z,10.37
2018-12-09T09:32:58.978Z,14.40
2018-12-09T09:35:27.383Z,8.83
2018-12-09T09:37:55.416Z,16.53
2018-12-09T09:40:23.491Z,7.30
2018-12-09T09:42:51.531Z,5.93
2018-12-09T09:45:19.600Z,7.93
2018-12-09T09:47:47.639Z,12.47
2018-12-09T09:50:15.694Z,7.20
2018-12-09T09:52:43.777Z,7.97
2018-12-09T09:55:11.860Z,6.20
2018-12-09T09:57:39.912Z,8.07
2018-12-09T10:00:08.030Z,11.37
2018-12-09T10:02:36.090Z,18.17
2018-12-09T10:05:04.232Z,7.00
2018-12-09T10:07:32.314Z,19.03
2018-12-09T10:10:00.352Z,11.93
2018-12-09T10:12:28.420Z,11.63
2018-12-09T10:14:56.496Z,10.73
2018-12-09T10:17:24.577Z,8.23
2018-12-09T10:19:52.627Z,13.27
2018-12-09T10:22:20.692Z,9.60
2018-12-09T10:24:49.334Z,8.30
2018-12-09T10:27:17.379Z,9.97
2018-12-09T10:29:45.424Z,8.67
2018-12-09T10:32:14.035Z,11.47
2018-12-09T10:34:42.078Z,10.70
2018-12-09T10:37:10.144Z,7.17
2018-12-09T10:39:38.432Z,7.00
2018-12-09T10:42:06.884Z,11.60
2018-12-09T10:44:34.968Z,10.10
2018-12-09T10:47:03.025Z,8.23
2018-12-09T10:49:31.948Z,20.23
2018-12-09T10:52:00.574Z,8.70
2018-12-09T10:54:28.686Z,11.53
2018-12-09T10:56:56.940Z,10.87
2018-12-09T10:59:25.302Z,6.87
2018-12-09T11:01:55.098Z,6.33
2018-12-09T11:04:23.761Z,9.00
2018-12-09T11:06:51.819Z,8.53
2018-12-09T11:09:19.845Z,6.10
2018-12-09T11:11:47.907Z,7.87
2018-12-09T11:14:15.968Z,8.53
2018-12-09T11:16:44.054Z,4.83
2018-12-09T11:19:12.110Z,10.50
2018-12-09T11:21:40.171Z,5.07
2018-12-09T11:24:08.219Z,6.73
2018-12-09T11:26:36.258Z,9.07
2018-12-09T11:29:04.332Z,8.10
2018-12-09T11:31:32.443Z,6.53
2018-12-09T11:34:01.435Z,5.30
2018-12-09T11:36:29.482Z,8.50
2018-12-09T11:38:57.538Z,7.00
2018-12-09T11:41:25.579Z,8.50
2018-12-09T11:43:54.478Z,4.63
2018-12-09T11:46:22.546Z,7.50
2018-12-09T11:48:51.462Z,12.30
2018-12-09T11:51:20.065Z,7.97
2018-12-09T11:53:48.164Z,7.00
2018-12-09T11:56:16.519Z,10.63
2018-12-09T11:58:44.572Z,7.80
2018-12-09T12:01:12.610Z,8.80
2018-12-09T12:03:41.567Z,7.80
2018-12-09T12:06:09.629Z,6.00
2018-12-09T12:08:37.682Z,10.20
2018-12-09T12:11:06.396Z,7.53
2018-12-09T12:13:34.418Z,7.70
2018-12-09T12:16:02.480Z,7.73
2018-12-09T12:18:30.601Z,3.83
2018-12-09T12:20:59.107Z,6.20
2018-12-09T12:23:27.154Z,4.27
2018-12-09T12:25:55.725Z,5.77
2018-12-09T12:28:24.411Z,14.60
2018-12-09T12:30:52.709Z,5.60
2018-12-09T12:33:20.747Z,5.50
2018-12-09T12:35:48.868Z,5.80
2018-12-09T12:38:16.909Z,7.57
2018-12-09T12:40:44.979Z,3.77
2018-12-09T12:43:13.106Z,6.63
2018-12-09T12:45:41.522Z,3.77
2018-12-09T12:48:09.600Z,2.67
2018-12-09T12:50:37.718Z,5.50
2018-12-09T12:53:05.764Z,7.90
2018-12-09T12:55:33.841Z,4.30
2018-12-09T12:58:01.891Z,3.37
2018-12-09T13:00:29.956Z,4.17
2018-12-09T13:02:58.003Z,4.33
2018-12-09T13:05:26.084Z,2.00
2018-12-09T13:07:54.126Z,1.90
2018-12-09T13:10:22.186Z,1.30
2018-12-09T13:12:50.212Z,2.17
2018-12-09T13:15:18.259Z,1.60
2018-12-09T13:17:46.321Z,1.93
2018-12-09T13:20:14.379Z,0.80
2018-12-09T13:22:42.442Z,1.20
2018-12-09T13:25:10.482Z,2.70
2018-12-09T13:27:38.546Z,2.10
2018-12-09T13:30:06.757Z,0.97
2018-12-09T13:32:35.643Z,1.63
2018-12-09T13:35:04.838Z,2.07
2018-12-09T13:37:33.205Z,0.63
2018-12-09T13:40:01.241Z,0.80
2018-12-09T13:42:29.368Z,1.17
2018-12-09T13:44:57.419Z,1.20
2018-12-09T13:47:25.475Z,1.07
2018-12-09T13:49:54.149Z,0.60
2018-12-09T13:52:22.450Z,0.70
2018-12-09T13:54:50.485Z,1.20
2018-12-09T13:57:18.528Z,3.30
2018-12-09T13:59:46.589Z,1.83
2018-12-09T14:02:14.690Z,1.53
2018-12-09T14:04:42.742Z,1.73
2018-12-09T14:07:10.816Z,1.80
2018-12-09T14:09:38.900Z,3.07
2018-12-09T14:12:06.999Z,3.63
2018-12-09T14:14:35.058Z,1.40
2018-12-09T14:17:04.044Z,2.90
2018-12-09T14:19:32.141Z,2.70
2018-12-09T14:22:00.175Z,1.80
2018-12-09T14:24:28.622Z,1.40
2018-12-09T14:26:57.246Z,1.27
2018-12-09T14:29:25.326Z,1.30
2018-12-09T14:31:53.941Z,2.53
2018-12-09T14:34:22.009Z,1.00
2018-12-09T14:36:50.209Z,1.60
2018-12-09T14:39:18.265Z,3.30
2018-12-09T14:41:46.435Z,0.87
2018-12-09T14:44:14.468Z,1.87
2018-12-09T14:46:42.521Z,3.50
2018-12-09T14:49:11.093Z,2.33
2018-12-09T14:51:39.150Z,4.63
2018-12-09T14:54:07.185Z,1.10
2018-12-09T14:56:35.483Z,4.57
2018-12-09T14:59:03.597Z,2.90
2018-12-09T15:01:31.704Z,3.37
2018-12-09T15:03:59.762Z,2.10
2018-12-09T15:06:27.808Z,1.07
2018-12-09T15:08:55.871Z,1.00
2018-12-09T15:11:24.010Z,0.93
2018-12-09T15:13:52.110Z,5.50
2018-12-09T15:16:20.270Z,1.80
2018-12-09T15:18:48.325Z,1.40
2018-12-09T15:21:16.386Z,1.60
2018-12-09T15:23:44.436Z,1.67
2018-12-09T15:26:12.581Z,0.60
2018-12-09T15:28:40.748Z,1.20
2018-12-09T15:31:09.144Z,3.80
2018-12-09T15:33:37.283Z,2.80
2018-12-09T15:36:05.350Z,0.53
2018-12-09T15:38:33.836Z,0.60
2018-12-09T15:41:02.214Z,0.80
2018-12-09T15:43:30.274Z,1.33
2018-12-09T15:45:58.339Z,3.60
2018-12-09T15:48:26.466Z,2.47
2018-12-09T15:50:54.703Z,0.70
2018-12-09T15:53:22.768Z,1.00
2018-12-09T15:55:50.809Z,1.13
2018-12-09T15:58:18.846Z,0.70
2018-12-09T16:00:52.380Z,0.90
2018-12-09T16:03:20.424Z,2.30
2018-12-09T16:05:48.489Z,1.27
2018-12-09T16:08:16.533Z,0.87
2018-12-09T16:10:44.572Z,2.10
2018-12-09T16:13:12.622Z,0.80
2018-12-09T16:15:40.669Z,0.80
2018-12-09T16:18:08.728Z,3.93
2018-12-09T16:20:36.770Z,2.50
2018-12-09T16:23:04.824Z,2.20
2018-12-09T16:25:32.892Z,1.53
2018-12-09T16:28:00.926Z,0.70
2018-12-09T16:30:29.003Z,0.60
2018-12-09T16:32:57.058Z,0.67
2018-12-09T16:35:25.284Z,1.60
2018-12-09T16:37:53.325Z,0.60
2018-12-09T16:40:21.391Z,0.70
2018-12-09T16:42:49.438Z,2.77
2018-12-09T16:45:17.479Z,2.00
2018-12-09T16:47:45.559Z,1.90
2018-12-09T16:50:13.627Z,1.73
2018-12-09T16:52:41.955Z,1.50
2018-12-09T16:55:10.002Z,2.40
2018-12-09T16:57:38.128Z,1.20
2018-12-09T17:00:06.453Z,1.20
2018-12-09T17:02:34.530Z,2.50
2018-12-09T17:05:02.626Z,0.70
2018-12-09T17:07:30.655Z,1.90
2018-12-09T17:09:58.732Z,1.27
2018-12-09T17:12:26.845Z,1.43
2018-12-09T17:14:54.931Z,0.60
2018-12-09T17:17:23.008Z,4.33
2018-12-09T17:19:51.083Z,1.27
2018-12-09T17:22:19.571Z,0.80
2018-12-09T17:24:47.662Z,0.97
2018-12-09T17:27:16.390Z,1.23
2018-12-09T17:29:44.508Z,0.80
2018-12-09T17:32:12.674Z,2.10
2018-12-09T17:34:40.945Z,1.43
2018-12-09T17:37:09.115Z,2.60
2018-12-09T17:39:37.189Z,2.07
2018-12-09T17:42:05.245Z,1.50
2018-12-09T17:44:34.055Z,1.33
2018-12-09T17:47:02.251Z,1.80
2018-12-09T17:49:30.403Z,1.93
2018-12-09T17:51:58.476Z,1.13
2018-12-09T17:54:26.528Z,2.87
2018-12-09T17:56:54.637Z,1.80
2018-12-09T17:59:22.764Z,3.47
2018-12-09T18:01:51.077Z,1.37
2018-12-09T18:04:19.150Z,1.30
2018-12-09T18:06:47.207Z,2.67
2018-12-09T18:09:15.265Z,2.90
2018-12-09T18:11:43.676Z,1.57
2018-12-09T18:14:12.402Z,2.00
2018-12-09T18:16:40.452Z,1.67
2018-12-09T18:19:08.596Z,3.13
2018-12-09T18:21:36.674Z,2.10
2018-12-09T18:24:04.721Z,2.90
2018-12-09T18:26:33.254Z,2.53
2018-12-09T18:29:01.818Z,1.93
2018-12-09T18:31:29.888Z,4.83
2018-12-09T18:33:58.994Z,1.73
2018-12-09T18:36:27.127Z,4.67
2018-12-09T18:38:55.348Z,1.90
2018-12-09T18:41:23.494Z,2.30
2018-12-09T18:43:52.283Z,1.40
2018-12-09T18:46:20.893Z,3.73
2018-12-09T18:48:48.956Z,1.67
2018-12-09T18:51:17.040Z,1.27
2018-12-09T18:53:45.106Z,3.07
2018-12-09T18:56:13.176Z,1.80
2018-12-09T18:58:41.266Z,2.40
2018-12-09T19:01:09.340Z,2.33
2018-12-09T19:03:37.426Z,2.60
2018-12-09T19:06:05.587Z,2.50
2018-12-09T19:08:33.771Z,3.03
2018-12-09T19:11:01.926Z,3.40
2018-12-09T19:13:29.980Z,1.53
2018-12-09T19:15:58.118Z,1.40
2018-12-09T19:18:26.286Z,1.30
2018-12-09T19:20:54.347Z,1.33
2018-12-09T19:23:22.524Z,1.20
2018-12-09T19:25:50.594Z,2.83
2018-12-09T19:28:18.647Z,4.47
2018-12-09T19:30:48.305Z,1.13
2018-12-09T19:33:17.674Z,4.60
2018-12-09T19:35:45.734Z,1.60
2018-12-09T19:38:13.829Z,1.20
2018-12-09T19:40:41.870Z,1.60
2018-12-09T19:43:09.970Z,1.20
2018-12-09T19:45:38.076Z,1.73
2018-12-09T19:48:06.156Z,1.17
2018-12-09T19:50:34.213Z,1.87
2018-12-09T19:53:02.369Z,2.83
2018-12-09T19:55:30.425Z,1.40
2018-12-09T19:57:58.471Z,3.53
2018-12-09T20:00:26.570Z,1.57
2018-12-09T20:02:54.802Z,2.83
2018-12-09T20:05:23.757Z,2.20
2018-12-09T20:07:51.915Z,1.30
2018-12-09T20:10:20.002Z,2.10
2018-12-09T20:12:48.115Z,4.37
2018-12-09T20:15:17.322Z,3.00
2018-12-09T20:17:45.551Z,2.50
2018-12-09T20:20:13.625Z,2.80
2018-12-09T20:22:41.662Z,2.27
2018-12-09T20:25:09.776Z,5.23
2018-12-09T20:27:37.839Z,6.87
2018-12-09T20:30:07.205Z,1.60
2018-12-09T20:32:35.567Z,3.30
2018-12-09T20:35:04.146Z,3.20
2018-12-09T20:37:32.275Z,3.70
2018-12-09T20:40:00.651Z,2.20
2018-12-09T20:42:28.700Z,2.30
2018-12-09T20:44:56.768Z,2.30
2018-12-09T20:47:24.859Z,4.27
2018-12-09T20:49:52.957Z,2.60
2018-12-09T20:52:21.010Z,2.30
2018-12-09T20:54:49.396Z,2.80
2018-12-09T20:57:17.886Z,4.23
2018-12-09T20:59:45.948Z,2.43
2018-12-09T21:02:14.068Z,2.17
2018-12-09T21:04:42.864Z,4.40
2018-12-09T21:07:10.945Z,1.57
2018-12-09T21:09:39.028Z,4.60
2018-12-09T21:12:07.108Z,1.90
2018-12-09T21:14:35.170Z,1.70
2018-12-09T21:17:03.290Z,2.80
2018-12-09T21:19:31.762Z,3.33
2018-12-09T21:21:59.825Z,2.60
2018-12-09T21:24:27.910Z,2.00
2018-12-09T21:26:56.287Z,2.10
2018-12-09T21:29:24.663Z,4.00
2018-12-09T21:31:52.717Z,3.23
2018-12-09T21:34:20.792Z,1.57
2018-12-09T21:36:49.708Z,1.53
2018-12-09T21:39:19.370Z,1.87
2018-12-09T21:41:47.496Z,2.20
2018-12-09T21:44:15.774Z,4.80
2018-12-09T21:46:43.821Z,1.67
2018-12-09T21:49:11.905Z,1.70
2018-12-09T21:51:40.610Z,1.60
2018-12-09T21:54:08.781Z,2.90
2018-12-09T21:56:36.842Z,1.53
2018-12-09T21:59:04.928Z,1.23
2018-12-09T22:01:33.110Z,1.40
2018-12-09T22:04:01.152Z,2.10
2018-12-09T22:06:29.233Z,1.60
2018-12-09T22:08:57.263Z,1.70
2018-12-09T22:11:25.420Z,6.07
2018-12-09T22:13:53.483Z,2.30
2018-12-09T22:16:21.635Z,1.80
2018-12-09T22:18:49.671Z,1.40
2018-12-09T22:21:18.625Z,1.77
2018-12-09T22:23:46.688Z,2.00
2018-12-09T22:26:14.756Z,1.60
2018-12-09T22:28:42.843Z,1.73
2018-12-09T22:31:11.042Z,2.10
2018-12-09T22:33:39.076Z,3.33
2018-12-09T22:36:07.150Z,3.10
2018-12-09T22:38:35.826Z,3.30
2018-12-09T22:41:03.983Z,1.57
2018-12-09T22:43:32.010Z,3.50
2018-12-09T22:46:00.147Z,2.50
2018-12-09T22:48:28.635Z,1.80
2018-12-09T22:50:56.690Z,1.73
2018-12-09T22:53:25.192Z,2.97
2018-12-09T22:55:53.274Z,6.27
2018-12-09T22:58:21.943Z,3.10
2018-12-09T23:00:55.536Z,3.57
2018-12-09T23:03:23.624Z,1.63
2018-12-09T23:05:51.676Z,2.40
2018-12-09T23:08:20.171Z,3.33
2018-12-09T23:10:48.255Z,1.67
2018-12-09T23:13:17.110Z,1.10
2018-12-09T23:15:45.211Z,2.30
2018-12-09T23:18:13.847Z,2.63
2018-12-09T23:20:41.879Z,1.60
2018-12-09T23:23:09.947Z,1.67
2018-12-09T23:25:38.027Z,2.27
2018-12-09T23:28:06.080Z,2.50
2018-12-09T23:30:34.135Z,1.67
2018-12-09T23:33:02.590Z,1.20
2018-12-09T23:35:30.732Z,1.40
2018-12-09T23:37:58.786Z,1.77
2018-12-09T23:40:26.866Z,1.50
2018-12-09T23:42:54.923Z,2.07
2018-12-09T23:45:23.004Z,1.67
2018-12-09T23:47:51.057Z,1.27
2018-12-09T23:50:19.235Z,5.40
2018-12-09T23:52:47.650Z,2.23
2018-12-09T23:55:16.022Z,1.37
2018-12-09T23:57:44.185Z,1.47
